createdAt,value
2023-01-18T00:02:01.356Z,88.61
2023-01-18T00:04:27.965Z,88.45
2023-01-18T00:06:54.357Z,89.01
2023-01-18T00:09:20.726Z,89.08
2023-01-18T00:11:48.703Z,89.26
2023-01-18T00:14:15.020Z,88.55
2023-01-18T00:16:41.422Z,89.46
2023-01-18T00:19:12.990Z,89.44
2023-01-18T00:21:40.491Z,89.87
2023-01-18T00:24:10.850Z,89.04
2023-01-18T00:26:37.901Z,88.09
2023-01-18T00:29:04.818Z,88.58
2023-01-18T00:31:31.672Z,89.11
2023-01-18T00:33:58.462Z,88.46
2023-01-18T00:36:24.775Z,89.78
2023-01-18T00:38:51.867Z,89.62
2023-01-18T00:41:18.828Z,89.74
2023-01-18T00:43:45.135Z,89.26
2023-01-18T00:46:14.473Z,90.30
2023-01-18T00:48:41.975Z,89.20
2023-01-18T00:51:12.408Z,89.98
2023-01-18T00:53:40.224Z,90.12
2023-01-18T00:56:08.809Z,89.74
2023-01-18T00:58:35.197Z,89.29
2023-01-18T01:01:01.574Z,88.16
2023-01-18T01:03:28.072Z,89.59
2023-01-18T01:06:12.859Z,88.18
2023-01-18T01:08:39.265Z,90.21
2023-01-18T01:11:11.798Z,89.00
2023-01-18T01:13:57.091Z,89.38
2023-01-18T01:16:42.323Z,89.04
2023-01-18T01:19:27.627Z,88.56
2023-01-18T01:22:12.281Z,89.28
2023-01-18T01:24:57.012Z,88.29
2023-01-18T01:27:23.328Z,90.18
2023-01-18T01:29:51.533Z,90.09
2023-01-18T01:32:18.022Z,88.43
2023-01-18T01:34:44.403Z,90.02
2023-01-18T01:37:10.755Z,88.51
2023-01-18T01:39:37.074Z,89.27
2023-01-18T01:42:03.520Z,88.63
2023-01-18T01:44:34.244Z,87.93
2023-01-18T01:47:09.430Z,88.02
2023-01-18T01:49:42.048Z,90.08
2023-01-18T01:52:11.294Z,88.80
2023-01-18T01:54:43.550Z,88.29
2023-01-18T01:57:18.622Z,88.80
2023-01-18T01:59:52.580Z,88.38
2023-01-18T02:02:19.228Z,89.20
2023-01-18T02:04:46.342Z,88.16
2023-01-18T02:07:13.056Z,88.71
2023-01-18T02:09:39.842Z,88.49
2023-01-18T02:12:06.498Z,88.75
2023-01-18T02:14:33.097Z,88.96
2023-01-18T02:17:11.265Z,88.46
2023-01-18T02:19:52.697Z,89.87
2023-01-18T02:22:48.305Z,89.62
2023-01-18T02:25:31.206Z,87.86
2023-01-18T02:28:12.831Z,87.85
2023-01-18T02:30:49.401Z,88.34
2023-01-18T02:33:31.868Z,88.66
2023-01-18T02:36:01.486Z,89.98
2023-01-18T02:38:36.604Z,89.54
2023-01-18T02:41:49.293Z,90.20
2023-01-18T02:44:40.637Z,89.72
2023-01-18T02:47:09.195Z,89.44
2023-01-18T02:49:35.560Z,89.02
2023-01-18T02:52:03.108Z,90.33
2023-01-18T02:54:32.283Z,88.53
2023-01-18T02:57:01.962Z,89.28
2023-01-18T02:59:35.164Z,88.55
2023-01-18T03:02:09.275Z,89.89
2023-01-18T03:04:54.137Z,89.94
2023-01-18T03:07:45.652Z,88.77
2023-01-18T03:10:13.425Z,90.04
2023-01-18T03:12:56.588Z,89.87
2023-01-18T03:15:47.533Z,88.67
2023-01-18T03:18:33.400Z,89.65
2023-01-18T03:21:05.356Z,88.17
2023-01-18T03:23:41.070Z,89.73
2023-01-18T03:26:10.878Z,89.05
2023-01-18T03:29:06.367Z,88.55
2023-01-18T03:32:09.765Z,89.51
2023-01-18T03:35:07.968Z,89.21
2023-01-18T03:37:41.526Z,90.42
2023-01-18T03:40:15.583Z,89.84
2023-01-18T03:42:50.829Z,89.16
2023-01-18T03:45:25.992Z,89.91
2023-01-18T03:47:52.874Z,90.17
2023-01-18T03:50:47.909Z,89.21
2023-01-18T03:53:20.998Z,89.17
2023-01-18T03:55:53.433Z,89.00
2023-01-18T03:58:25.490Z,89.61
2023-01-18T04:00:53.163Z,90.06
2023-01-18T04:03:19.586Z,90.37
2023-01-18T04:05:46.080Z,89.07
2023-01-18T04:08:12.449Z,89.70
2023-01-18T04:10:38.786Z,88.95
2023-01-18T04:13:05.149Z,88.66
2023-01-18T04:15:31.678Z,89.55
2023-01-18T04:17:57.993Z,89.08
2023-01-18T04:20:24.348Z,88.19
2023-01-18T04:22:54.940Z,89.48
2023-01-18T04:25:21.723Z,89.53
2023-01-18T04:27:48.057Z,88.69
2023-01-18T04:30:14.614Z,88.27
2023-01-18T04:32:42.693Z,89.77
2023-01-18T04:35:09.861Z,88.96
2023-01-18T04:37:38.070Z,89.36
2023-01-18T04:40:05.634Z,90.15
2023-01-18T04:42:32.006Z,88.76
2023-01-18T04:44:59.845Z,89.11
2023-01-18T04:47:28.948Z,88.68
2023-01-18T04:49:57.314Z,89.04
2023-01-18T04:52:23.776Z,89.14
2023-01-18T04:54:50.130Z,89.65
2023-01-18T04:57:16.458Z,89.24
2023-01-18T04:59:45.772Z,88.56
2023-01-18T05:02:12.679Z,88.63
2023-01-18T05:04:39.054Z,88.90
2023-01-18T05:07:05.401Z,89.34
2023-01-18T05:09:31.747Z,89.15
2023-01-18T05:11:58.059Z,89.09
2023-01-18T05:14:24.504Z,89.45
2023-01-18T05:16:50.838Z,88.78
2023-01-18T05:19:17.205Z,88.83
2023-01-18T05:21:43.510Z,89.64
2023-01-18T05:24:09.833Z,89.13
2023-01-18T05:26:36.350Z,89.97
2023-01-18T05:29:02.736Z,89.40
2023-01-18T05:31:29.162Z,90.05
2023-01-18T05:33:58.578Z,90.16
2023-01-18T05:36:24.944Z,89.68
2023-01-18T05:38:51.287Z,90.00
2023-01-18T05:41:18.306Z,89.57
2023-01-18T05:43:44.754Z,89.90
2023-01-18T05:46:14.776Z,89.05
2023-01-18T05:48:41.096Z,90.00
2023-01-18T05:51:11.442Z,89.44
2023-01-18T05:53:38.084Z,89.33
2023-01-18T05:56:07.276Z,90.38
2023-01-18T05:58:33.645Z,89.08
2023-01-18T06:01:00.102Z,90.20
2023-01-18T06:03:26.619Z,89.40
2023-01-18T06:05:53.107Z,90.33
2023-01-18T06:08:20.402Z,89.78
2023-01-18T06:10:57.854Z,88.86
2023-01-18T06:13:27.878Z,89.04
2023-01-18T06:15:55.295Z,88.41
2023-01-18T06:18:22.075Z,90.19
2023-01-18T06:20:48.437Z,89.48
2023-01-18T06:23:15.285Z,90.32
2023-01-18T06:25:41.600Z,90.52
2023-01-18T06:28:07.947Z,89.24
2023-01-18T06:30:34.338Z,89.47
2023-01-18T06:33:06.065Z,89.43
2023-01-18T06:35:33.919Z,89.09
2023-01-18T06:38:00.365Z,89.99
2023-01-18T06:40:26.858Z,89.84
2023-01-18T06:42:53.199Z,88.83
2023-01-18T06:45:21.932Z,88.67
2023-01-18T06:47:49.273Z,89.32
2023-01-18T06:50:16.069Z,89.84
2023-01-18T06:52:43.858Z,88.65
2023-01-18T06:55:14.828Z,89.08
2023-01-18T06:57:41.381Z,89.82
2023-01-18T07:00:09.408Z,89.75
2023-01-18T07:02:36.631Z,89.44
2023-01-18T07:05:04.429Z,89.17
2023-01-18T07:07:31.009Z,89.65
2023-01-18T07:09:57.378Z,89.16
2023-01-18T07:12:23.765Z,90.04
2023-01-18T07:14:50.152Z,90.30
2023-01-18T07:17:16.525Z,90.55
2023-01-18T07:19:44.114Z,90.07
2023-01-18T07:22:10.443Z,88.85
2023-01-18T07:24:36.764Z,89.55
2023-01-18T07:27:03.239Z,89.67
2023-01-18T07:29:29.573Z,89.20
2023-01-18T07:31:56.124Z,89.40
2023-01-18T07:34:22.478Z,89.27
2023-01-18T07:36:48.890Z,90.64
2023-01-18T07:39:15.377Z,90.99
2023-01-18T07:41:42.026Z,90.37
2023-01-18T07:44:10.200Z,90.10
2023-01-18T07:46:36.535Z,89.61
2023-01-18T07:49:05.641Z,90.01
2023-01-18T07:51:33.304Z,89.38
2023-01-18T07:53:59.672Z,89.77
2023-01-18T07:56:27.075Z,90.62
2023-01-18T07:58:53.584Z,89.23
2023-01-18T08:01:21.988Z,91.13
2023-01-18T08:03:49.973Z,89.85
2023-01-18T08:06:21.000Z,89.63
2023-01-18T08:08:47.452Z,90.92
2023-01-18T08:11:13.854Z,88.88
2023-01-18T08:13:41.248Z,90.38
2023-01-18T08:16:11.013Z,89.47
2023-01-18T08:18:37.493Z,90.39
2023-01-18T08:21:04.519Z,89.05
2023-01-18T08:23:30.910Z,89.30
2023-01-18T08:26:00.916Z,89.79
2023-01-18T08:28:27.321Z,89.74
2023-01-18T08:30:53.772Z,90.59
2023-01-18T08:33:20.122Z,90.72
2023-01-18T08:35:47.907Z,90.06
2023-01-18T08:38:16.170Z,90.16
2023-01-18T08:40:42.861Z,90.69
2023-01-18T08:43:10.742Z,90.34
2023-01-18T08:45:37.228Z,90.61
2023-01-18T08:48:09.296Z,89.86
2023-01-18T08:50:36.074Z,90.25
2023-01-18T08:53:03.941Z,89.75
2023-01-18T08:55:30.661Z,89.87
2023-01-18T08:57:58.164Z,89.99
2023-01-18T09:00:28.301Z,90.09
2023-01-18T09:02:54.926Z,90.29
2023-01-18T09:05:21.781Z,89.62
2023-01-18T09:07:48.283Z,89.34
2023-01-18T09:10:14.823Z,89.36
2023-01-18T09:12:41.142Z,89.65
2023-01-18T09:15:08.461Z,89.99
2023-01-18T09:17:34.930Z,90.11
2023-01-18T09:20:01.284Z,90.05
2023-01-18T09:22:27.625Z,89.74
2023-01-18T09:24:53.987Z,89.74
2023-01-18T09:27:20.313Z,90.10
2023-01-18T09:29:52.174Z,90.08
2023-01-18T09:32:20.130Z,89.99
2023-01-18T09:34:50.667Z,89.37
2023-01-18T09:37:18.944Z,89.43
2023-01-18T09:39:51.700Z,89.94
2023-01-18T09:42:25.221Z,90.01
2023-01-18T09:44:58.575Z,89.37
2023-01-18T09:47:29.022Z,89.16
2023-01-18T09:49:56.606Z,88.91
2023-01-18T09:53:09.557Z,89.00
2023-01-18T09:55:53.899Z,88.32
2023-01-18T09:58:41.426Z,89.09
2023-01-18T10:01:16.125Z,87.34
2023-01-18T10:04:00.101Z,87.54
2023-01-18T10:07:01.808Z,87.03
2023-01-18T10:09:33.616Z,87.41
2023-01-18T10:12:04.510Z,86.15
2023-01-18T10:15:02.055Z,85.55
2023-01-18T10:17:39.035Z,86.19
2023-01-18T10:20:36.640Z,86.58
2023-01-18T10:23:12.434Z,84.77
2023-01-18T10:25:44.557Z,84.63
2023-01-18T10:28:26.372Z,84.54
2023-01-18T10:30:58.087Z,84.66
2023-01-18T10:33:32.548Z,83.04
2023-01-18T10:36:06.196Z,83.92
2023-01-18T10:38:32.808Z,82.42
2023-01-18T10:41:01.414Z,82.29
2023-01-18T10:43:29.991Z,81.32
2023-01-18T10:45:56.461Z,81.34
2023-01-18T10:48:33.821Z,81.49
2023-01-18T10:51:03.060Z,80.78
2023-01-18T10:53:32.826Z,80.21
2023-01-18T10:56:21.509Z,79.86
2023-01-18T10:58:50.949Z,79.22
2023-01-18T11:01:22.366Z,78.43
2023-01-18T11:03:52.557Z,78.67
2023-01-18T11:06:20.593Z,78.65
2023-01-18T11:08:49.198Z,78.49
2023-01-18T11:12:06.015Z,77.28
2023-01-18T11:14:34.884Z,77.47
2023-01-18T11:17:10.830Z,76.86
2023-01-18T11:19:41.635Z,75.73
2023-01-18T11:22:13.397Z,75.59
2023-01-18T11:24:39.948Z,75.39
2023-01-18T11:27:20.191Z,75.04
2023-01-18T11:29:46.764Z,74.53
2023-01-18T11:32:30.988Z,74.28
2023-01-18T11:34:59.792Z,73.99
2023-01-18T11:37:31.294Z,73.97
2023-01-18T11:39:57.933Z,73.72
2023-01-18T11:42:31.428Z,73.50
2023-01-18T11:45:28.876Z,73.10
2023-01-18T11:48:30.123Z,72.49
2023-01-18T11:51:08.281Z,72.23
2023-01-18T11:53:48.710Z,71.27
2023-01-18T11:56:30.853Z,70.80
2023-01-18T11:58:57.689Z,71.30
2023-01-18T12:01:43.410Z,70.59
2023-01-18T12:04:23.014Z,70.50
2023-01-18T12:07:27.610Z,70.73
2023-01-18T12:10:00.205Z,71.17
2023-01-18T12:12:54.498Z,70.38
2023-01-18T12:15:45.423Z,70.16
2023-01-18T12:18:31.624Z,70.60
2023-01-18T12:21:11.860Z,69.60
2023-01-18T12:23:42.151Z,70.74
2023-01-18T12:26:17.094Z,70.04
2023-01-18T12:29:21.831Z,69.97
2023-01-18T12:32:06.759Z,69.24
2023-01-18T12:34:56.193Z,69.57
2023-01-18T12:37:41.281Z,69.69
2023-01-18T12:40:25.893Z,68.85
2023-01-18T12:43:11.013Z,68.83
2023-01-18T12:46:05.780Z,69.78
2023-01-18T12:48:42.728Z,69.10
2023-01-18T12:51:13.729Z,69.48
2023-01-18T12:53:46.323Z,70.08
2023-01-18T12:56:24.509Z,69.79
2023-01-18T12:58:57.556Z,69.58
2023-01-18T13:01:27.078Z,69.02
2023-01-18T13:04:00.186Z,70.18
2023-01-18T13:06:27.197Z,70.24
2023-01-18T13:09:22.554Z,70.86
2023-01-18T13:11:49.801Z,69.41
2023-01-18T13:14:38.338Z,68.76
2023-01-18T13:17:28.695Z,67.97
2023-01-18T13:20:04.899Z,69.09
2023-01-18T13:22:55.618Z,67.84
2023-01-18T13:25:32.235Z,68.58
2023-01-18T13:28:25.949Z,69.21
2023-01-18T13:31:01.743Z,68.53
2023-01-18T13:33:34.686Z,68.72
2023-01-18T13:36:08.592Z,68.67
2023-01-18T13:38:57.134Z,69.39
2023-01-18T13:41:25.478Z,70.10
2023-01-18T13:43:51.816Z,70.22
2023-01-18T13:46:26.070Z,69.49
2023-01-18T13:48:57.433Z,69.42
2023-01-18T13:51:46.960Z,69.24
2023-01-18T13:54:22.904Z,69.59
2023-01-18T13:57:01.465Z,69.98
2023-01-18T13:59:34.112Z,69.15
2023-01-18T14:02:17.742Z,69.73
2023-01-18T14:04:44.859Z,69.63
2023-01-18T14:07:19.741Z,70.24
2023-01-18T14:09:48.728Z,69.97
2023-01-18T14:12:15.470Z,70.33
2023-01-18T14:14:55.895Z,69.93
2023-01-18T14:17:25.029Z,70.37
2023-01-18T14:20:29.081Z,69.48
2023-01-18T14:23:17.409Z,69.99
2023-01-18T14:26:00.282Z,70.75
2023-01-18T14:28:44.852Z,70.55
2023-01-18T14:31:37.499Z,70.67
2023-01-18T14:34:28.674Z,71.07
2023-01-18T14:36:55.812Z,70.05
2023-01-18T14:39:22.945Z,70.36
2023-01-18T14:41:55.149Z,70.02
2023-01-18T14:44:24.013Z,70.31
2023-01-18T14:46:53.171Z,70.59
2023-01-18T14:49:30.889Z,70.67
2023-01-18T14:51:58.863Z,70.77
2023-01-18T14:54:25.859Z,70.62
2023-01-18T14:57:01.581Z,70.58
2023-01-18T14:59:30.668Z,70.84
2023-01-18T15:02:03.470Z,70.98
2023-01-18T15:04:32.783Z,70.75
2023-01-18T15:07:04.718Z,71.02
2023-01-18T15:09:34.265Z,70.80
2023-01-18T15:12:04.221Z,69.00
2023-01-18T15:14:33.433Z,68.01
2023-01-18T15:17:01.699Z,67.95
2023-01-18T15:19:39.960Z,67.07
2023-01-18T15:22:10.747Z,68.25
2023-01-18T15:24:39.460Z,68.70
2023-01-18T15:27:11.427Z,68.29
2023-01-18T15:29:38.816Z,68.38
2023-01-18T15:32:17.521Z,67.37
2023-01-18T15:34:47.298Z,68.32
2023-01-18T15:37:34.540Z,68.30
2023-01-18T15:40:06.728Z,68.54
2023-01-18T15:42:36.738Z,68.79
2023-01-18T15:45:03.741Z,69.09
2023-01-18T15:47:36.677Z,69.63
2023-01-18T15:50:15.541Z,69.44
2023-01-18T15:52:45.367Z,70.01
2023-01-18T15:55:35.757Z,69.93
2023-01-18T15:58:06.826Z,70.38
2023-01-18T16:00:43.209Z,69.92
2023-01-18T16:03:20.414Z,70.77
2023-01-18T16:06:07.101Z,70.41
2023-01-18T16:08:35.606Z,71.26
2023-01-18T16:11:02.026Z,71.55
2023-01-18T16:13:34.397Z,71.56
2023-01-18T16:16:18.420Z,71.92
2023-01-18T16:18:49.247Z,71.79
2023-01-18T16:21:40.268Z,72.09
2023-01-18T16:24:29.686Z,72.04
2023-01-18T16:26:58.204Z,72.67
2023-01-18T16:29:24.709Z,72.53
2023-01-18T16:31:51.100Z,72.19
2023-01-18T16:34:22.081Z,72.07
2023-01-18T16:36:49.271Z,72.27
2023-01-18T16:39:15.729Z,72.22
2023-01-18T16:41:45.462Z,71.64
2023-01-18T16:44:12.192Z,71.92
2023-01-18T16:46:38.529Z,72.10
2023-01-18T16:49:09.478Z,72.33
2023-01-18T16:51:36.000Z,72.32
2023-01-18T16:54:02.389Z,72.32
2023-01-18T16:56:28.702Z,72.66
2023-01-18T16:58:55.041Z,73.08
2023-01-18T17:01:21.493Z,72.29
2023-01-18T17:03:49.609Z,72.33
2023-01-18T17:06:22.359Z,72.35
2023-01-18T17:08:49.233Z,73.13
2023-01-18T17:11:15.701Z,73.27
2023-01-18T17:13:42.281Z,72.73
2023-01-18T17:16:15.035Z,72.79
2023-01-18T17:18:41.367Z,72.46
2023-01-18T17:21:10.147Z,72.23
2023-01-18T17:23:39.661Z,72.14
2023-01-18T17:26:07.577Z,72.21
2023-01-18T17:28:34.032Z,72.19
2023-01-18T17:31:00.708Z,71.97
2023-01-18T17:33:27.116Z,71.97
2023-01-18T17:35:54.552Z,72.25
2023-01-18T17:38:24.925Z,72.31
2023-01-18T17:40:52.325Z,71.53
2023-01-18T17:43:31.983Z,71.73
2023-01-18T17:46:01.881Z,71.86
2023-01-18T17:48:28.944Z,71.98
2023-01-18T17:50:55.346Z,72.08
2023-01-18T17:53:21.676Z,72.09
2023-01-18T17:55:48.080Z,72.80
2023-01-18T17:58:14.540Z,72.25
2023-01-18T18:00:40.886Z,72.75
2023-01-18T18:03:07.853Z,72.13
2023-01-18T18:05:34.389Z,72.20
2023-01-18T18:08:00.768Z,72.28
2023-01-18T18:10:27.148Z,72.46
2023-01-18T18:12:53.510Z,72.34
2023-01-18T18:15:23.335Z,72.08
2023-01-18T18:17:49.699Z,72.47
2023-01-18T18:20:16.761Z,72.53
2023-01-18T18:22:43.290Z,72.39
2023-01-18T18:25:09.816Z,72.88
2023-01-18T18:27:51.489Z,72.56
2023-01-18T18:30:18.425Z,72.68
2023-01-18T18:32:44.861Z,72.76
2023-01-18T18:35:24.347Z,72.52
2023-01-18T18:37:53.585Z,72.24
2023-01-18T18:40:20.276Z,72.40
2023-01-18T18:43:00.597Z,72.15
2023-01-18T18:45:30.180Z,71.75
2023-01-18T18:47:56.497Z,72.38
2023-01-18T18:50:22.896Z,71.64
2023-01-18T18:52:49.314Z,71.86
2023-01-18T18:55:15.847Z,71.37
2023-01-18T18:57:42.183Z,71.90
2023-01-18T19:00:09.172Z,72.27
2023-01-18T19:02:35.605Z,72.29
2023-01-18T19:05:02.401Z,72.37
2023-01-18T19:07:28.840Z,71.77
2023-01-18T19:09:55.407Z,71.97
2023-01-18T19:12:21.764Z,72.10
2023-01-18T19:14:48.786Z,72.31
2023-01-18T19:17:25.121Z,72.32
2023-01-18T19:19:56.182Z,72.15
2023-01-18T19:22:22.613Z,72.55
2023-01-18T19:24:49.116Z,72.25
2023-01-18T19:27:15.471Z,72.53
2023-01-18T19:29:41.843Z,72.62
2023-01-18T19:32:08.171Z,73.22
2023-01-18T19:34:38.167Z,73.07
2023-01-18T19:37:04.844Z,72.93
2023-01-18T19:39:34.324Z,73.36
2023-01-18T19:42:01.682Z,72.68
2023-01-18T19:44:28.119Z,73.65
2023-01-18T19:46:56.501Z,73.73
2023-01-18T19:49:25.831Z,73.04
2023-01-18T19:51:53.194Z,73.18
2023-01-18T19:54:22.976Z,73.30
2023-01-18T19:56:49.457Z,73.76
2023-01-18T19:59:16.104Z,73.38
2023-01-18T20:01:42.884Z,72.89
2023-01-18T20:04:10.866Z,73.68
2023-01-18T20:06:39.349Z,74.35
2023-01-18T20:09:17.776Z,74.56
2023-01-18T20:11:44.874Z,73.71
2023-01-18T20:14:12.992Z,73.95
2023-01-18T20:16:39.431Z,73.97
2023-01-18T20:19:05.794Z,74.62
2023-01-18T20:21:32.192Z,74.91
2023-01-18T20:23:58.714Z,74.45
2023-01-18T20:26:35.992Z,74.90
2023-01-18T20:29:06.460Z,75.11
2023-01-18T20:31:34.427Z,74.90
2023-01-18T20:34:00.853Z,75.29
2023-01-18T20:36:27.805Z,74.98
2023-01-18T20:38:54.157Z,75.29
2023-01-18T20:41:20.757Z,75.69
2023-01-18T20:43:47.302Z,76.06
2023-01-18T20:46:13.813Z,75.19
2023-01-18T20:48:40.253Z,75.78
2023-01-18T20:51:10.017Z,76.04
2023-01-18T20:53:38.023Z,75.70
2023-01-18T20:56:11.829Z,75.36
2023-01-18T20:58:43.344Z,75.93
2023-01-18T21:01:15.619Z,76.52
2023-01-18T21:03:43.116Z,76.76
2023-01-18T21:06:10.477Z,76.35
2023-01-18T21:08:37.332Z,77.02
2023-01-18T21:11:04.569Z,76.33
2023-01-18T21:13:32.502Z,77.26
2023-01-18T21:15:59.660Z,77.18
2023-01-18T21:18:27.207Z,77.41
2023-01-18T21:20:58.895Z,76.88
2023-01-18T21:23:26.899Z,77.25
2023-01-18T21:25:56.121Z,77.20
2023-01-18T21:28:23.195Z,77.22
2023-01-18T21:30:51.425Z,78.16
2023-01-18T21:33:18.391Z,78.21
2023-01-18T21:35:45.132Z,78.15
2023-01-18T21:38:11.847Z,77.49
2023-01-18T21:40:38.369Z,78.27
2023-01-18T21:43:23.230Z,77.85
2023-01-18T21:45:55.242Z,78.25
2023-01-18T21:48:26.272Z,78.62
2023-01-18T21:51:11.324Z,78.18
2023-01-18T21:53:56.358Z,78.10
2023-01-18T21:56:22.876Z,78.46
2023-01-18T21:58:57.462Z,78.12
2023-01-18T22:01:27.253Z,78.79
2023-01-18T22:04:13.523Z,78.54
2023-01-18T22:06:40.144Z,79.29
2023-01-18T22:09:07.788Z,78.56
2023-01-18T22:11:34.222Z,79.73
2023-01-18T22:14:02.630Z,79.27
2023-01-18T22:16:30.739Z,79.77
2023-01-18T22:18:58.187Z,79.86
2023-01-18T22:21:25.336Z,79.46
2023-01-18T22:23:52.725Z,79.87
2023-01-18T22:26:20.812Z,79.68
2023-01-18T22:28:47.637Z,79.86
2023-01-18T22:31:14.393Z,79.86
2023-01-18T22:33:41.333Z,80.25
2023-01-18T22:36:08.522Z,80.79
2023-01-18T22:38:37.179Z,80.26
2023-01-18T22:41:24.359Z,79.98
2023-01-18T22:43:51.457Z,79.97
2023-01-18T22:46:19.872Z,79.94
2023-01-18T22:48:47.161Z,80.73
2023-01-18T22:51:19.358Z,79.93
2023-01-18T22:53:45.812Z,80.08
2023-01-18T22:56:18.859Z,79.92
2023-01-18T22:58:45.358Z,79.79
2023-01-18T23:01:22.281Z,79.74
2023-01-18T23:03:49.632Z,80.30
2023-01-18T23:06:17.008Z,80.35
2023-01-18T23:08:43.443Z,80.42
2023-01-18T23:11:18.438Z,80.06
2023-01-18T23:14:06.998Z,80.96
2023-01-18T23:16:51.761Z,80.44
2023-01-18T23:19:18.339Z,80.54
2023-01-18T23:21:44.852Z,81.18
2023-01-18T23:24:11.260Z,81.33
2023-01-18T23:26:37.616Z,80.76
2023-01-18T23:29:03.976Z,81.14
2023-01-18T23:31:30.449Z,81.14
2023-01-18T23:33:56.827Z,80.48
2023-01-18T23:36:23.588Z,80.77
2023-01-18T23:39:08.594Z,80.83
2023-01-18T23:41:54.010Z,80.67
2023-01-18T23:44:38.842Z,80.95
2023-01-18T23:47:23.478Z,81.14
2023-01-18T23:50:08.214Z,81.04
2023-01-18T23:52:52.849Z,80.78
2023-01-18T23:55:19.172Z,80.91
2023-01-18T23:57:45.541Z,81.00
